sensor_id;sensor_type;location;lat;lon;timestamp;temperature;humidity
16178;DHT22;8195;51.220;9.746;2023-05-10T00:07:16;15.60;97.20
16178;DHT22;8195;51.220;9.746;2023-05-10T00:17:37;15.60;97.20
16178;DHT22;8195;51.220;9.746;2023-05-10T00:28:04;15.60;97.20
16178;DHT22;8195;51.220;9.746;2023-05-10T00:38:44;15.60;97.20
16178;DHT22;8195;51.220;9.746;2023-05-10T00:49:06;15.50;97.20
16178;DHT22;8195;51.220;9.746;2023-05-10T01:43:46;15.20;97.20
16178;DHT22;8195;51.220;9.746;2023-05-10T01:54:10;15.10;97.20
16178;DHT22;8195;51.220;9.746;2023-05-10T02:04:35;15.10;97.20
16178;DHT22;8195;51.220;9.746;2023-05-10T02:14:59;15.00;97.20
16178;DHT22;8195;51.220;9.746;2023-05-10T02:25:23;15.00;97.20
16178;DHT22;8195;51.220;9.746;2023-05-10T02:35:46;14.90;97.20
16178;DHT22;8195;51.220;9.746;2023-05-10T02:46:07;14.90;97.20
16178;DHT22;8195;51.220;9.746;2023-05-10T02:56:33;14.90;97.20
16178;DHT22;8195;51.220;9.746;2023-05-10T03:06:55;14.90;97.20
16178;DHT22;8195;51.220;9.746;2023-05-10T03:17:25;14.80;97.20
16178;DHT22;8195;51.220;9.746;2023-05-10T03:27:50;14.80;97.20
16178;DHT22;8195;51.220;9.746;2023-05-10T03:38:12;14.80;97.20
16178;DHT22;8195;51.220;9.746;2023-05-10T03:48:45;14.80;97.20
16178;DHT22;8195;51.220;9.746;2023-05-10T03:59:06;14.60;97.20
16178;DHT22;8195;51.220;9.746;2023-05-10T04:09:27;14.50;97.20
16178;DHT22;8195;51.220;9.746;2023-05-10T04:19:48;14.40;97.20
16178;DHT22;8195;51.220;9.746;2023-05-10T04:30:09;14.30;97.20
16178;DHT22;8195;51.220;9.746;2023-05-10T04:40:30;14.20;97.20
16178;DHT22;8195;51.220;9.746;2023-05-10T04:50:51;14.20;97.20
16178;DHT22;8195;51.220;9.746;2023-05-10T05:01:12;14.20;97.20
16178;DHT22;8195;51.220;9.746;2023-05-10T05:11:33;14.20;97.20
16178;DHT22;8195;51.220;9.746;2023-05-10T05:21:54;14.10;97.20
16178;DHT22;8195;51.220;9.746;2023-05-10T05:32:15;14.10;97.20
16178;DHT22;8195;51.220;9.746;2023-05-10T05:42:36;14.10;97.20
16178;DHT22;8195;51.220;9.746;2023-05-10T05:52:57;14.00;97.20
16178;DHT22;8195;51.220;9.746;2023-05-10T06:03:18;14.00;97.20
16178;DHT22;8195;51.220;9.746;2023-05-10T06:13:39;13.90;97.20
16178;DHT22;8195;51.220;9.746;2023-05-10T06:24:00;13.90;97.20
16178;DHT22;8195;51.220;9.746;2023-05-10T06:34:21;13.80;97.20
16178;DHT22;8195;51.220;9.746;2023-05-10T06:44:42;13.70;97.20
16178;DHT22;8195;51.220;9.746;2023-05-10T06:55:04;13.80;97.20
16178;DHT22;8195;51.220;9.746;2023-05-10T07:05:25;13.90;97.20
16178;DHT22;8195;51.220;9.746;2023-05-10T07:15:49;14.00;97.20
16178;DHT22;8195;51.220;9.746;2023-05-10T07:26:56;14.50;97.20
16178;DHT22;8195;51.220;9.746;2023-05-10T07:37:01;14.40;97.20
16178;DHT22;8195;51.220;9.746;2023-05-10T07:47:27;14.80;97.20
16178;DHT22;8195;51.220;9.746;2023-05-10T07:57:48;15.00;97.20
16178;DHT22;8195;51.220;9.746;2023-05-10T08:08:27;15.00;97.20
16178;DHT22;8195;51.220;9.746;2023-05-10T08:30:11;15.00;97.20
16178;DHT22;8195;51.220;9.746;2023-05-10T08:41:04;15.20;97.20
16178;DHT22;8195;51.220;9.746;2023-05-10T08:51:43;15.60;97.20
16178;DHT22;8195;51.220;9.746;2023-05-10T09:02:13;16.20;97.20
16178;DHT22;8195;51.220;9.746;2023-05-10T09:12:40;16.30;97.20
16178;DHT22;8195;51.220;9.746;2023-05-10T09:23:04;16.50;97.20
16178;DHT22;8195;51.220;9.746;2023-05-10T09:33:48;16.90;97.20
16178;DHT22;8195;51.220;9.746;2023-05-10T09:44:09;16.70;97.20
16178;DHT22;8195;51.220;9.746;2023-05-10T09:54:51;16.60;97.20
16178;DHT22;8195;51.220;9.746;2023-05-10T10:16:35;17.20;97.20
16178;DHT22;8195;51.220;9.746;2023-05-10T10:27:09;17.00;97.20
16178;DHT22;8195;51.220;9.746;2023-05-10T10:37:46;17.50;97.20
16178;DHT22;8195;51.220;9.746;2023-05-10T10:48:30;17.40;97.20
16178;DHT22;8195;51.220;9.746;2023-05-10T10:59:02;17.00;97.20
16178;DHT22;8195;51.220;9.746;2023-05-10T11:09:27;16.90;97.20
16178;DHT22;8195;51.220;9.746;2023-05-10T11:20:08;17.10;97.20
16178;DHT22;8195;51.220;9.746;2023-05-10T11:30:31;17.20;97.20
16178;DHT22;8195;51.220;9.746;2023-05-10T11:41:00;18.00;97.20
16178;DHT22;8195;51.220;9.746;2023-05-10T11:51:23;18.20;97.20
16178;DHT22;8195;51.220;9.746;2023-05-10T12:01:48;18.30;97.20
16178;DHT22;8195;51.220;9.746;2023-05-10T12:23:09;18.50;97.20
16178;DHT22;8195;51.220;9.746;2023-05-10T12:33:43;18.10;97.20
16178;DHT22;8195;51.220;9.746;2023-05-10T12:44:05;18.10;97.20
16178;DHT22;8195;51.220;9.746;2023-05-10T12:54:35;18.50;97.20
16178;DHT22;8195;51.220;9.746;2023-05-10T13:05:06;17.90;97.20
16178;DHT22;8195;51.220;9.746;2023-05-10T13:15:36;17.50;97.20
16178;DHT22;8195;51.220;9.746;2023-05-10T13:26:01;17.10;97.20
16178;DHT22;8195;51.220;9.746;2023-05-10T13:36:37;17.00;97.20
16178;DHT22;8195;51.220;9.746;2023-05-10T13:47:22;17.10;97.20
16178;DHT22;8195;51.220;9.746;2023-05-10T14:09:32;17.40;97.20
16178;DHT22;8195;51.220;9.746;2023-05-10T14:20:01;17.50;97.20
16178;DHT22;8195;51.220;9.746;2023-05-10T14:30:25;17.50;97.20
16178;DHT22;8195;51.220;9.746;2023-05-10T14:41:28;17.40;97.20
16178;DHT22;8195;51.220;9.746;2023-05-10T14:51:43;17.20;97.20
16178;DHT22;8195;51.220;9.746;2023-05-10T15:02:20;17.20;97.20
16178;DHT22;8195;51.220;9.746;2023-05-10T15:12:42;17.30;97.20
16178;DHT22;8195;51.220;9.746;2023-05-10T15:23:06;17.30;97.20
16178;DHT22;8195;51.220;9.746;2023-05-10T15:34:17;17.40;97.20
16178;DHT22;8195;51.220;9.746;2023-05-10T15:44:56;17.30;97.20
16178;DHT22;8195;51.220;9.746;2023-05-10T15:55:26;16.70;97.20
16178;DHT22;8195;51.220;9.746;2023-05-10T16:16:57;16.20;97.20
16178;DHT22;8195;51.220;9.746;2023-05-10T16:27:24;16.00;97.20
16178;DHT22;8195;51.220;9.746;2023-05-10T16:37:56;15.70;97.20
16178;DHT22;8195;51.220;9.746;2023-05-10T16:59:35;15.50;97.20
16178;DHT22;8195;51.220;9.746;2023-05-10T17:10:18;15.40;97.20
16178;DHT22;8195;51.220;9.746;2023-05-10T17:20:50;15.20;97.20
16178;DHT22;8195;51.220;9.746;2023-05-10T17:41:56;15.00;97.20
16178;DHT22;8195;51.220;9.746;2023-05-10T17:52:17;14.80;97.20
16178;DHT22;8195;51.220;9.746;2023-05-10T18:02:47;14.60;97.20
16178;DHT22;8195;51.220;9.746;2023-05-10T18:13:11;14.50;97.20
16178;DHT22;8195;51.220;9.746;2023-05-10T18:23:33;14.30;97.20
16178;DHT22;8195;51.220;9.746;2023-05-10T18:45:06;14.00;97.20
16178;DHT22;8195;51.220;9.746;2023-05-10T18:55:36;14.00;97.20
16178;DHT22;8195;51.220;9.746;2023-05-10T19:06:03;13.90;97.20
16178;DHT22;8195;51.220;9.746;2023-05-10T19:27:23;13.70;97.20
16178;DHT22;8195;51.220;9.746;2023-05-10T19:38:04;13.60;97.20
16178;DHT22;8195;51.220;9.746;2023-05-10T19:59:38;13.30;97.20
16178;DHT22;8195;51.220;9.746;2023-05-10T20:10:11;13.20;97.20
16178;DHT22;8195;51.220;9.746;2023-05-10T20:21:15;12.90;97.20
16178;DHT22;8195;51.220;9.746;2023-05-10T20:31:24;12.70;97.20
16178;DHT22;8195;51.220;9.746;2023-05-10T20:41:47;12.60;97.20
16178;DHT22;8195;51.220;9.746;2023-05-10T20:52:08;12.40;97.20
16178;DHT22;8195;51.220;9.746;2023-05-10T21:02:30;12.50;97.20
16178;DHT22;8195;51.220;9.746;2023-05-10T21:12:51;12.50;97.20
16178;DHT22;8195;51.220;9.746;2023-05-10T21:23:11;12.50;97.20
16178;DHT22;8195;51.220;9.746;2023-05-10T21:33:32;12.30;97.20
16178;DHT22;8195;51.220;9.746;2023-05-10T21:43:53;12.30;97.20
16178;DHT22;8195;51.220;9.746;2023-05-10T21:54:14;12.20;97.20
16178;DHT22;8195;51.220;9.746;2023-05-10T22:04:35;12.20;97.20
16178;DHT22;8195;51.220;9.746;2023-05-10T22:15:05;12.30;97.20
16178;DHT22;8195;51.220;9.746;2023-05-10T22:25:26;12.20;97.20
16178;DHT22;8195;51.220;9.746;2023-05-10T22:35:47;12.30;97.20
16178;DHT22;8195;51.220;9.746;2023-05-10T22:46:08;12.10;97.20
16178;DHT22;8195;51.220;9.746;2023-05-10T22:56:31;12.20;97.20
16178;DHT22;8195;51.220;9.746;2023-05-10T23:06:52;12.20;97.20
16178;DHT22;8195;51.220;9.746;2023-05-10T23:17:16;12.20;97.20
16178;DHT22;8195;51.220;9.746;2023-05-10T23:27:37;12.30;97.20
16178;DHT22;8195;51.220;9.746;2023-05-10T23:38:10;12.30;97.20
16178;DHT22;8195;51.220;9.746;2023-05-10T23:48:31;12.20;97.20
16178;DHT22;8195;51.220;9.746;2023-05-10T23:58:52;12.20;97.20
